CheckWX is a tool to help pilots better visualize weather data.  It is not intended as a substitute for an official pre-flight weather briefing.

05:13:36 UTC

ETAD METAR
Spangdahlem Air Base Airport
Trier, Germany
Current

18 mins ago

ETAD 240456Z AUTO 08010KT 9999 CLR 01/M09 A3058 RMK AO2 SLP361 T00141095 $
Observed
Feb-24 @ 04:56 UTC
Wind
  • 080° at 10 KTS
Visibility
10,000+ meters
Flight Rules
VFR
Cloud Levels
  • Clear skies
Temperature
C / 34°F
Dewpoint
-10°C / 14°F
Humidity
44%
Altimeter
30.58" Hg
Pressure
1036.1 hPa
Previous

1 hour ago

ETAD 240356Z AUTO 08009KT 9999 CLR 01/M09 A3058 RMK AO2 SLP361 T00141090 $
Observed
Feb-24 @ 03:56 UTC
Wind
  • 080° at 9 KTS
Visibility
10,000+ meters
Flight Rules
VFR
Cloud Levels
  • Clear skies
Temperature
C / 34°F
Dewpoint
-9°C / 16°F
Humidity
48%
Altimeter
30.58" Hg
Pressure
1036.1 hPa
Previous

2 hours ago

ETAD 240256Z AUTO 09008KT 9999 CLR 02/M09 A3058 RMK AO2 SLP357 T00211086 58004 $
Observed
Feb-24 @ 02:56 UTC
Wind
  • 090° at 8 KTS
Visibility
10,000+ meters
Flight Rules
VFR
Cloud Levels
  • Clear skies
Temperature
C / 36°F
Dewpoint
-9°C / 16°F
Humidity
44%
Altimeter
30.58" Hg
Pressure
1035.7 hPa